Time;durP1;ratioP1;P1;durP2;ratioP2;P2;SDS_P1;SDS_P2;PMS_P1;PMS_P2;Temp;Humidity;BMP_temperature;BMP_pressure;BME280_temperature;BME280_humidity;BME280_pressure;Samples;Min_cycle;Max_cycle;Signal;HPM_P1;HPM_P2
2022/01/16 00:00:21;;;;;;;;;57.75;44.25;;;;;2.88;100.00;102359.81;5020877;28;45450;-84
2022/01/16 00:05:25;;;;;;;;;57.50;43.00;;;;;2.96;100.00;102347.78;5042387;28;46089;-83
2022/01/16 00:07:51;;;;;;;;;57.50;43.50;;;;;2.96;100.00;102336.63;5029652;28;45453;-83
2022/01/16 00:10:18;;;;;;;;;53.75;40.25;;;;;2.99;100.00;102339.50;5025533;28;45426;-83
2022/01/16 00:12:48;;;;;;;;;61.25;44.75;;;;;3.02;100.00;102333.03;5037623;28;45594;-85
2022/01/16 00:15:15;;;;;;;;;49.25;41.75;;;;;3.07;100.00;102347.22;5033833;28;45309;-80
2022/01/16 00:17:53;;;;;;;;;49.50;41.75;;;;;3.10;100.00;102359.41;5024265;28;45976;-77
2022/01/16 00:20:21;;;;;;;;;51.50;42.50;;;;;3.15;100.00;102354.75;5022705;28;45376;-85
2022/01/16 00:22:48;;;;;;;;;54.50;44.25;;;;;3.21;100.00;102348.59;5034181;28;45169;-82
2022/01/16 00:25:15;;;;;;;;;51.00;42.75;;;;;3.26;100.00;102354.16;5014495;28;47620;-78
2022/01/16 00:27:42;;;;;;;;;57.00;45.75;;;;;3.28;100.00;102356.84;5017673;28;45908;-87
2022/01/16 00:30:08;;;;;;;;;54.00;42.50;;;;;3.29;100.00;102369.81;5020688;28;45270;-79
2022/01/16 00:32:34;;;;;;;;;49.00;42.00;;;;;3.29;100.00;102394.50;5036054;28;45610;-79
2022/01/16 00:35:00;;;;;;;;;61.00;42.50;;;;;3.20;100.00;102392.84;5035771;28;45263;-84
2022/01/16 00:37:25;;;;;;;;;58.75;42.75;;;;;3.18;100.00;102389.22;5041136;28;45383;-89
2022/01/16 00:39:51;;;;;;;;;54.75;41.50;;;;;3.14;100.00;102371.72;5040416;28;45394;-78
2022/01/16 00:42:17;;;;;;;;;55.00;41.00;;;;;3.10;100.00;102329.59;5030369;28;45379;-80
2022/01/16 00:44:42;;;;;;;;;61.25;41.50;;;;;3.06;100.00;102344.47;5020831;28;47775;-78
2022/01/16 00:47:08;;;;;;;;;54.25;41.25;;;;;3.01;100.00;102351.69;5020743;28;45266;-74
2022/01/16 00:49:38;;;;;;;;;51.50;42.75;;;;;2.96;100.00;102352.91;5023704;28;45585;-74
2022/01/16 00:52:05;;;;;;;;;59.75;43.50;;;;;3.00;100.00;102360.13;5030649;28;45743;-82
2022/01/16 00:54:31;;;;;;;;;57.75;43.00;;;;;3.02;100.00;102363.75;5022750;28;45440;-81
2022/01/16 00:56:57;;;;;;;;;59.25;44.00;;;;;3.05;100.00;102381.06;5042360;28;45229;-77
2022/01/16 00:59:22;;;;;;;;;61.50;45.00;;;;;3.07;100.00;102366.75;5036709;28;45244;-79
2022/01/16 01:01:48;;;;;;;;;56.00;43.00;;;;;3.08;100.00;102394.16;5037048;28;45567;-76
2022/01/16 01:04:14;;;;;;;;;59.00;43.25;;;;;3.09;100.00;102424.13;5042037;28;45432;-77
2022/01/16 01:06:40;;;;;;;;;66.25;50.00;;;;;3.03;100.00;102406.50;5038187;28;45786;-80
2022/01/16 01:09:05;;;;;;;;;59.75;43.25;;;;;2.96;100.00;102428.75;5033767;28;45398;-86
2022/01/16 01:11:31;;;;;;;;;53.50;43.00;;;;;2.97;100.00;102420.31;5029955;28;45395;-79
2022/01/16 01:16:49;;;;;;;;;52.25;44.75;;;;;2.98;100.00;102397.44;5040016;28;45453;-88
2022/01/16 01:19:13;;;;;;;;;61.75;45.50;;;;;2.99;100.00;102412.03;5029741;28;45268;-85
2022/01/16 01:21:39;;;;;;;;;48.25;40.00;;;;;2.97;100.00;102382.84;5039692;28;45309;-83
2022/01/16 01:24:05;;;;;;;;;57.25;44.25;;;;;2.94;100.00;102351.84;5039813;28;45415;-81
2022/01/16 01:26:43;;;;;;;;;57.00;43.50;;;;;2.94;100.00;102331.38;5020914;28;45459;-83
2022/01/16 01:29:09;;;;;;;;;61.00;43.75;;;;;2.92;100.00;102317.53;5042994;28;45329;-83
2022/01/16 01:31:34;;;;;;;;;56.00;43.00;;;;;2.98;100.00;102312.13;5042852;28;45232;-87
2022/01/16 01:34:00;;;;;;;;;54.75;44.25;;;;;2.97;100.00;102312.88;5039351;28;45273;-88
2022/01/16 01:36:26;;;;;;;;;62.25;44.75;;;;;2.92;100.00;102341.44;5015891;28;45250;-85
2022/01/16 01:38:51;;;;;;;;;52.50;42.50;;;;;2.89;100.00;102366.75;5023370;28;45170;-86
2022/01/16 01:41:19;;;;;;;;;63.75;47.50;;;;;2.88;100.00;102382.84;5032543;28;45232;-90
2022/01/16 01:51:44;;;;;;;;;60.50;44.50;;;;;2.89;100.00;102416.97;5032571;28;45304;-86
2022/01/16 01:54:11;;;;;;;;;60.50;46.00;;;;;2.90;100.00;102427.38;5028827;28;46185;-83
2022/01/16 01:56:39;;;;;;;;;58.00;44.50;;;;;2.92;100.00;102422.41;5021546;28;45291;-81
2022/01/16 01:59:07;;;;;;;;;57.50;42.25;;;;;2.96;100.00;102416.88;5014048;28;45490;-87
2022/01/16 02:01:33;;;;;;;;;59.00;43.50;;;;;2.96;100.00;102436.41;5040568;28;45433;-85
2022/01/16 02:03:59;;;;;;;;;55.25;43.25;;;;;3.01;100.00;102451.50;5014923;28;47340;-82
2022/01/16 02:06:26;;;;;;;;;58.50;43.50;;;;;3.08;100.00;102455.59;5039015;28;45348;-84
2022/01/16 02:08:55;;;;;;;;;59.75;46.75;;;;;3.10;100.00;102460.09;5037162;28;45460;-86
2022/01/16 02:11:24;;;;;;;;;51.25;40.00;;;;;3.16;100.00;102458.94;5037528;28;45438;-83
2022/01/16 02:14:04;;;;;;;;;50.50;39.75;;;;;3.17;100.00;102471.88;5032122;28;46339;-88
2022/01/16 02:35:38;;;;;;;;;61.00;43.75;;;;;3.35;100.00;102436.97;5038732;28;45956;-78
2022/01/16 02:38:05;;;;;;;;;46.25;38.50;;;;;3.32;100.00;102438.34;5009223;28;45412;-77
2022/01/16 02:40:31;;;;;;;;;57.25;42.50;;;;;3.30;100.00;102439.84;5030415;28;45358;-77
2022/01/16 02:42:56;;;;;;;;;60.00;43.75;;;;;3.31;100.00;102428.84;5019643;28;45621;-83
2022/01/16 02:45:30;;;;;;;;;55.75;44.50;;;;;3.31;100.00;102419.50;5042919;28;45211;-77
2022/01/16 02:47:58;;;;;;;;;61.75;44.50;;;;;3.33;100.00;102412.00;5044159;28;45731;-82
2022/01/16 02:50:25;;;;;;;;;52.50;43.00;;;;;3.37;100.00;102421.75;5028002;28;45438;-80
2022/01/16 02:52:51;;;;;;;;;45.25;37.50;;;;;3.40;100.00;102419.53;5028392;28;45444;-83
2022/01/16 02:55:20;;;;;;;;;57.00;42.25;;;;;3.42;100.00;102407.78;5042246;28;46741;-79
2022/01/16 02:57:46;;;;;;;;;49.75;40.00;;;;;3.44;100.00;102407.91;5043899;28;45261;-87
2022/01/16 03:00:12;;;;;;;;;51.00;42.25;;;;;3.48;100.00;102402.38;5042658;28;45236;-87
2022/01/16 03:02:38;;;;;;;;;49.25;40.75;;;;;3.48;100.00;102407.50;5031371;28;45746;-87
2022/01/16 03:05:05;;;;;;;;;58.50;41.75;;;;;3.47;100.00;102409.13;5018157;28;47473;-88
2022/01/16 03:07:30;;;;;;;;;56.25;42.50;;;;;3.48;100.00;102410.94;5037999;28;45489;-84
2022/01/16 03:10:28;;;;;;;;;64.50;46.00;;;;;3.47;100.00;102406.56;5036112;28;45498;-89
2022/01/16 03:12:55;;;;;;;;;58.00;41.75;;;;;3.47;100.00;102401.44;5031117;28;45269;-86
2022/01/16 03:15:21;;;;;;;;;47.50;39.00;;;;;3.48;100.00;102412.59;5028472;28;45265;-87
2022/01/16 03:23:11;;;;;;;;;57.00;42.00;;;;;3.44;100.00;102388.38;5039227;28;45311;-88
2022/01/16 03:25:37;;;;;;;;;62.25;46.75;;;;;3.46;100.00;102403.88;5035561;28;45399;-88
2022/01/16 03:28:03;;;;;;;;;55.00;43.50;;;;;3.46;100.00;102403.88;5024352;28;45307;-88
2022/01/16 03:30:29;;;;;;;;;52.50;41.25;;;;;3.48;100.00;102400.69;5031611;28;45410;-84
2022/01/16 03:32:55;;;;;;;;;57.75;42.50;;;;;3.51;100.00;102406.13;5041144;28;45564;-88
2022/01/16 03:35:20;;;;;;;;;61.50;43.25;;;;;3.57;100.00;102408.41;5035479;28;45457;-89
2022/01/16 03:37:46;;;;;;;;;58.00;46.25;;;;;3.60;100.00;102411.28;5033606;28;45177;-89
2022/01/16 03:40:12;;;;;;;;;52.75;43.50;;;;;3.65;100.00;102396.34;5031379;28;45517;-89
2022/01/16 03:42:39;;;;;;;;;61.50;46.25;;;;;3.69;100.00;102386.56;5028859;28;45183;-89
2022/01/16 03:45:07;;;;;;;;;50.00;41.25;;;;;3.71;100.00;102382.50;5039965;28;45635;-90
2022/01/16 03:47:33;;;;;;;;;60.00;48.25;;;;;3.74;100.00;102391.22;5039637;28;45394;-89
2022/01/16 03:50:00;;;;;;;;;55.00;45.50;;;;;3.77;100.00;102395.00;5026353;28;45285;-88
2022/01/16 03:52:25;;;;;;;;;60.25;45.00;;;;;3.79;100.00;102406.28;5034151;28;45247;-87
2022/01/16 03:54:51;;;;;;;;;59.50;43.50;;;;;3.79;100.00;102403.72;5044551;28;45273;-89
2022/01/16 03:57:16;;;;;;;;;60.00;45.75;;;;;3.76;100.00;102406.00;5043997;28;45209;-89
2022/01/16 03:59:42;;;;;;;;;54.50;42.50;;;;;3.75;100.00;102411.88;5020850;28;45519;-90
2022/01/16 04:02:08;;;;;;;;;63.00;47.00;;;;;3.74;100.00;102414.25;5024757;28;45986;-89
2022/01/16 04:04:34;;;;;;;;;64.25;46.50;;;;;3.68;100.00;102409.44;5028082;28;45226;-90
2022/01/16 04:07:00;;;;;;;;;50.00;39.00;;;;;3.69;100.00;102413.81;5038838;28;45225;-89
2022/01/16 04:09:26;;;;;;;;;59.00;46.00;;;;;3.68;100.00;102423.16;5038545;28;45357;-90
2022/01/16 04:11:55;;;;;;;;;61.25;45.00;;;;;3.68;100.00;102419.69;5040044;28;45521;-90
2022/01/16 04:15:31;;;;;;;;;52.75;42.50;;;;;3.65;100.00;102434.78;5027111;28;45495;-90
2022/01/16 04:17:13;;;;;;;;;58.75;42.25;;;;;3.61;100.00;102437.78;5051323;28;45308;-84
2022/01/16 04:19:39;;;;;;;;;58.75;44.50;;;;;3.57;100.00;102446.81;5045620;28;45493;-89
2022/01/16 04:22:05;;;;;;;;;59.00;44.75;;;;;3.56;100.00;102456.13;5048449;28;45433;-88
2022/01/16 04:24:30;;;;;;;;;58.25;43.00;;;;;3.58;100.00;102456.31;5043400;28;45260;-83
2022/01/16 04:26:56;;;;;;;;;60.25;43.50;;;;;3.61;100.00;102463.38;5020903;28;45562;-85
2022/01/16 04:29:22;;;;;;;;;51.25;42.75;;;;;3.63;100.00;102477.25;5037231;28;45297;-81
2022/01/16 04:31:47;;;;;;;;;51.25;39.50;;;;;3.65;100.00;102470.63;5024571;28;45160;-78
2022/01/16 04:34:13;;;;;;;;;63.25;47.75;;;;;3.65;100.00;102468.97;5028813;28;46053;-82
2022/01/16 04:36:38;;;;;;;;;60.75;44.50;;;;;3.61;100.00;102466.88;5017195;28;45269;-78
2022/01/16 04:39:13;;;;;;;;;58.25;45.50;;;;;3.54;100.00;102480.72;5015648;28;45639;-75
2022/01/16 04:44:23;;;;;;;;;45.50;38.75;;;;;3.41;100.00;102465.75;5031677;28;45784;-84
2022/01/16 04:46:48;;;;;;;;;51.25;41.50;;;;;3.38;100.00;102468.03;5015020;28;45409;-90
2022/01/16 04:49:14;;;;;;;;;57.00;42.50;;;;;3.31;100.00;102460.47;5051575;28;45260;-87
2022/01/16 04:51:39;;;;;;;;;49.25;39.50;;;;;3.28;100.00;102479.72;5045115;28;45387;-89
2022/01/16 04:54:05;;;;;;;;;51.50;42.75;;;;;3.28;100.00;102478.09;5042748;28;45950;-90
2022/01/16 04:56:31;;;;;;;;;50.75;42.50;;;;;3.29;100.00;102481.53;5040970;28;45550;-88
2022/01/16 04:58:57;;;;;;;;;57.75;39.75;;;;;3.28;100.00;102495.09;5042981;28;45347;-88
2022/01/16 05:01:23;;;;;;;;;45.50;39.50;;;;;3.25;100.00;102488.00;5027042;28;45485;-88
2022/01/16 05:03:49;;;;;;;;;52.25;40.50;;;;;3.23;100.00;102482.75;5025585;28;45371;-89
2022/01/16 05:06:15;;;;;;;;;45.75;38.25;;;;;3.19;100.00;102482.25;5026236;28;45434;-89
2022/01/16 05:08:41;;;;;;;;;53.50;38.25;;;;;3.14;100.00;102481.78;5028278;28;45460;-87
2022/01/16 05:11:08;;;;;;;;;53.25;37.00;;;;;3.10;100.00;102493.38;5030647;28;45220;-89
2022/01/16 05:18:50;;;;;;;;;53.50;31.25;;;;;3.03;100.00;102501.19;5041641;28;45431;-88
2022/01/16 05:21:15;;;;;;;;;36.50;31.00;;;;;2.90;100.00;102499.03;5039591;28;45528;-89
2022/01/16 05:23:42;;;;;;;;;31.25;26.25;;;;;2.90;100.00;102504.13;5037562;28;46045;-88
2022/01/16 05:26:09;;;;;;;;;35.75;28.75;;;;;2.91;100.00;102505.03;5037818;28;45351;-89
2022/01/16 05:28:35;;;;;;;;;34.25;27.50;;;;;2.89;100.00;102511.63;5036498;28;45607;-88
2022/01/16 05:31:02;;;;;;;;;36.50;31.75;;;;;2.89;100.00;102514.19;5038872;28;45580;-90
2022/01/16 05:33:28;;;;;;;;;41.00;35.00;;;;;2.92;100.00;102511.94;5035653;28;46107;-76
2022/01/16 05:35:53;;;;;;;;;38.50;32.25;;;;;2.93;100.00;102511.22;5025678;28;45511;-86
2022/01/16 05:38:19;;;;;;;;;33.25;28.75;;;;;2.90;100.00;102503.22;5016095;28;45449;-86
2022/01/16 05:40:45;;;;;;;;;46.50;31.00;;;;;2.86;100.00;102498.53;5036605;28;45296;-87
2022/01/16 05:43:11;;;;;;;;;30.25;28.50;;;;;2.85;100.00;102512.06;5037562;28;46183;-86
2022/01/16 05:45:38;;;;;;;;;40.25;33.00;;;;;2.89;100.00;102534.66;5033103;28;45338;-87
2022/01/16 05:48:04;;;;;;;;;40.25;29.75;;;;;2.91;100.00;102535.72;5032094;28;45445;-87
2022/01/16 05:50:33;;;;;;;;;36.75;32.25;;;;;2.91;100.00;102522.94;5021019;28;45560;-86
2022/01/16 05:53:00;;;;;;;;;40.50;30.75;;;;;2.91;100.00;102516.19;5016444;28;45530;-84
2022/01/16 05:55:33;;;;;;;;;39.00;34.00;;;;;2.97;100.00;102502.19;5032728;28;45679;-86
2022/01/16 05:57:59;;;;;;;;;40.25;31.25;;;;;3.04;100.00;102504.63;5035422;28;45391;-84
2022/01/16 06:00:25;;;;;;;;;39.50;30.25;;;;;3.10;100.00;102500.16;5036357;28;45574;-82
2022/01/16 06:02:51;;;;;;;;;35.00;30.75;;;;;3.18;100.00;102500.94;5032745;28;45407;-85
2022/01/16 06:05:17;;;;;;;;;27.25;25.25;;;;;3.22;100.00;102516.75;5033861;28;45241;-85
2022/01/16 06:07:51;;;;;;;;;33.50;30.50;;;;;3.26;100.00;102520.53;5026677;28;45392;-85
2022/01/16 06:10:18;;;;;;;;;36.25;29.50;;;;;3.21;100.00;102537.97;5031600;28;45185;-84
2022/01/16 06:12:43;;;;;;;;;38.50;33.25;;;;;3.20;100.00;102530.13;5012783;28;47704;-84
2022/01/16 06:15:09;;;;;;;;;46.50;30.25;;;;;3.16;100.00;102538.25;5036029;28;45454;-84
2022/01/16 06:17:35;;;;;;;;;40.75;29.75;;;;;3.12;100.00;102537.03;5036544;28;45657;-84
2022/01/16 06:20:01;;;;;;;;;31.75;30.25;;;;;3.12;100.00;102554.03;5025150;28;45458;-82
2022/01/16 06:22:27;;;;;;;;;33.25;27.00;;;;;3.10;100.00;102544.53;5026361;28;46234;-84
2022/01/16 06:24:52;;;;;;;;;31.00;22.25;;;;;3.12;100.00;102566.84;5029766;28;45410;-84
2022/01/16 06:27:18;;;;;;;;;32.50;26.25;;;;;3.10;100.00;102549.66;5019689;28;45400;-84
2022/01/16 06:29:44;;;;;;;;;25.25;22.25;;;;;3.13;100.00;102541.41;5029881;28;45415;-84
2022/01/16 06:32:09;;;;;;;;;36.75;29.75;;;;;3.12;100.00;102547.28;5039616;28;46087;-84
2022/01/16 06:34:35;;;;;;;;;29.50;24.25;;;;;3.08;100.00;102543.47;5031744;28;45370;-80
2022/01/16 06:37:01;;;;;;;;;28.00;22.25;;;;;3.06;100.00;102545.00;5032934;28;45265;-80
2022/01/16 06:39:29;;;;;;;;;32.75;24.75;;;;;3.05;100.00;102548.31;5037815;28;45517;-79
2022/01/16 06:41:55;;;;;;;;;30.75;24.50;;;;;3.08;100.00;102543.47;5036546;28;45291;-80
2022/01/16 06:44:22;;;;;;;;;36.25;27.50;;;;;3.11;100.00;102535.22;5030828;28;46064;-80
2022/01/16 06:46:48;;;;;;;;;34.50;28.00;;;;;3.21;100.00;102542.19;5042436;28;45325;-79
2022/01/16 06:49:14;;;;;;;;;28.50;25.00;;;;;3.24;100.00;102552.75;5036895;28;45643;-81
2022/01/16 06:51:39;;;;;;;;;34.00;23.00;;;;;3.27;100.00;102555.63;5026647;28;45355;-76
2022/01/16 06:54:05;;;;;;;;;28.25;24.25;;;;;3.31;100.00;102555.16;5035322;28;45675;-77
2022/01/16 06:56:31;;;;;;;;;34.50;25.75;;;;;3.35;100.00;102565.00;5038744;28;45307;-79
2022/01/16 06:58:58;;;;;;;;;32.75;26.00;;;;;3.43;100.00;102580.22;5028776;28;45519;-84
2022/01/16 07:01:26;;;;;;;;;30.50;27.50;;;;;3.45;100.00;102596.66;5020162;28;45345;-84
2022/01/16 07:03:53;;;;;;;;;35.75;26.50;;;;;3.44;100.00;102600.88;5022304;28;45367;-85
2022/01/16 07:06:20;;;;;;;;;29.75;24.00;;;;;3.41;100.00;102588.66;5035701;28;45384;-84
2022/01/16 07:08:45;;;;;;;;;34.75;27.25;;;;;3.44;100.00;102585.53;5017745;28;45392;-84
2022/01/16 07:11:11;;;;;;;;;39.75;31.50;;;;;3.50;100.00;102596.38;5020336;28;45298;-85
2022/01/16 07:13:37;;;;;;;;;28.00;26.50;;;;;3.55;100.00;102591.72;5032938;28;45236;-84
2022/01/16 07:16:03;;;;;;;;;36.50;27.75;;;;;3.59;100.00;102575.94;5040985;28;45293;-84
2022/01/16 07:18:29;;;;;;;;;33.75;28.25;;;;;3.67;100.00;102569.03;5037467;28;45329;-82
2022/01/16 07:20:55;;;;;;;;;32.25;28.75;;;;;3.70;100.00;102577.91;5022528;28;46314;-85
2022/01/16 07:23:21;;;;;;;;;30.00;24.00;;;;;3.72;100.00;102596.88;5011136;28;45545;-82
2022/01/16 07:25:48;;;;;;;;;34.50;25.75;;;;;3.76;100.00;102600.69;5006884;28;45275;-84
2022/01/16 07:28:14;;;;;;;;;24.50;21.50;;;;;3.77;100.00;102615.31;5020814;28;45271;-84
2022/01/16 07:30:40;;;;;;;;;17.75;14.25;;;;;3.77;100.00;102633.25;5023664;28;45427;-84
2022/01/16 07:33:07;;;;;;;;;27.25;25.00;;;;;3.76;100.00;102616.06;5021630;28;45248;-84
2022/01/16 07:35:35;;;;;;;;;28.50;23.00;;;;;3.76;100.00;102621.19;5026161;28;45163;-84
2022/01/16 07:38:02;;;;;;;;;33.25;25.00;;;;;3.80;100.00;102622.41;5039748;28;45470;-84
2022/01/16 07:40:28;;;;;;;;;23.75;22.50;;;;;3.85;100.00;102626.31;5037141;28;45405;-77
2022/01/16 07:42:54;;;;;;;;;28.50;23.50;;;;;3.90;100.00;102621.66;5034085;28;45255;-85
2022/01/16 07:45:20;;;;;;;;;31.50;28.00;;;;;3.94;100.00;102617.00;5030141;28;45349;-83
2022/01/16 07:47:46;;;;;;;;;30.50;23.25;;;;;3.95;100.00;102613.69;5031353;28;45336;-85
2022/01/16 07:50:14;;;;;;;;;33.25;23.25;;;;;3.96;100.00;102615.50;5033218;28;45309;-85
2022/01/16 07:52:40;;;;;;;;;23.50;21.50;;;;;3.99;100.00;102620.94;5038170;28;45882;-84
2022/01/16 07:55:06;;;;;;;;;31.25;26.25;;;;;4.00;100.00;102614.13;5008081;28;45457;-83
2022/01/16 07:57:32;;;;;;;;;38.25;26.75;;;;;4.01;100.00;102611.75;5036988;28;44860;-85
2022/01/16 07:59:58;;;;;;;;;31.25;24.25;;;;;4.06;100.00;102613.84;5041043;28;45928;-80
2022/01/16 08:02:24;;;;;;;;;37.00;27.50;;;;;4.08;100.00;102605.59;5031929;28;45298;-85
2022/01/16 08:04:49;;;;;;;;;31.00;28.00;;;;;4.11;100.00;102595.63;5027669;28;45497;-85
2022/01/16 08:07:15;;;;;;;;;39.25;30.00;;;;;4.14;100.00;102605.31;5027833;28;45221;-84
2022/01/16 08:09:42;;;;;;;;;31.00;24.75;;;;;4.15;100.00;102604.56;5029246;28;45222;-84
2022/01/16 08:12:08;;;;;;;;;30.50;24.50;;;;;4.18;100.00;102607.41;5045727;28;45845;-80
2022/01/16 08:14:35;;;;;;;;;30.25;25.50;;;;;4.21;100.00;102605.16;5041236;28;45278;-81
2022/01/16 08:17:01;;;;;;;;;25.00;22.50;;;;;4.22;100.00;102598.34;5021432;28;45466;-80
2022/01/16 08:19:30;;;;;;;;;28.00;24.50;;;;;4.22;100.00;102599.28;5033010;28;45371;-85
2022/01/16 08:21:56;;;;;;;;;30.50;27.00;;;;;4.22;100.00;102616.28;5022312;28;45725;-84
2022/01/16 08:24:22;;;;;;;;;26.00;21.50;;;;;4.21;100.00;102601.69;5026225;28;45468;-85
2022/01/16 08:26:48;;;;;;;;;29.50;24.50;;;;;4.28;100.00;102622.03;5038468;28;45610;-86
2022/01/16 08:29:14;;;;;;;;;30.75;26.75;;;;;4.30;100.00;102620.56;5037132;28;45602;-85
2022/01/16 08:31:41;;;;;;;;;21.50;21.50;;;;;4.30;100.00;102611.19;5038335;28;45516;-85
2022/01/16 08:34:07;;;;;;;;;33.00;26.25;;;;;4.28;100.00;102605.00;5035571;28;45556;-84
2022/01/16 08:36:33;;;;;;;;;40.75;29.00;;;;;4.29;100.00;102604.25;5035580;28;45526;-79
2022/01/16 08:38:58;;;;;;;;;31.75;24.25;;;;;4.28;100.00;102599.84;5038841;28;45633;-81
2022/01/16 08:41:25;;;;;;;;;24.00;20.25;;;;;4.31;100.00;102604.41;5041568;28;45335;-86
2022/01/16 08:43:51;;;;;;;;;30.75;25.50;;;;;4.33;100.00;102619.19;5037606;28;45444;-83
2022/01/16 08:46:18;;;;;;;;;28.50;19.25;;;;;4.34;100.00;102623.56;5038028;28;45577;-88
2022/01/16 08:48:44;;;;;;;;;26.00;21.50;;;;;4.38;100.00;102623.84;5036608;28;46134;-83
2022/01/16 08:51:10;;;;;;;;;24.75;23.50;;;;;4.38;100.00;102605.91;5034298;28;45363;-79
2022/01/16 08:53:36;;;;;;;;;26.00;19.25;;;;;4.43;100.00;102627.78;5035134;28;45528;-81
2022/01/16 08:56:03;;;;;;;;;27.75;23.50;;;;;4.40;100.00;102633.53;5036539;28;45582;-74
2022/01/16 08:58:29;;;;;;;;;25.25;19.75;;;;;4.36;100.00;102653.59;5042937;28;45502;-79
2022/01/16 09:00:54;;;;;;;;;20.50;19.50;;;;;4.35;100.00;102644.97;5037774;28;45417;-80
2022/01/16 09:03:21;;;;;;;;;22.50;18.75;;;;;4.36;100.00;102656.16;5035775;28;45303;-79
2022/01/16 09:05:48;;;;;;;;;36.00;28.25;;;;;4.40;100.00;102648.91;5035554;28;45580;-77
2022/01/16 09:08:15;;;;;;;;;32.50;23.25;;;;;4.47;100.00;102638.50;5038264;28;45452;-82
2022/01/16 09:10:41;;;;;;;;;30.50;24.00;;;;;4.52;100.00;102643.19;5022688;28;45611;-83
2022/01/16 09:13:11;;;;;;;;;29.75;28.25;;;;;4.55;100.00;102640.91;5036180;28;45431;-82
2022/01/16 09:15:39;;;;;;;;;27.25;24.50;;;;;4.55;100.00;102640.91;5036495;28;45533;-89
2022/01/16 09:18:05;;;;;;;;;29.00;21.50;;;;;4.56;100.00;102648.78;5037809;28;45490;-84
2022/01/16 09:20:33;;;;;;;;;39.00;29.75;;;;;4.56;100.00;102650.41;5033458;28;45344;-84
2022/01/16 09:22:59;;;;;;;;;29.25;24.75;;;;;4.56;100.00;102661.59;5037441;28;45334;-86
2022/01/16 09:25:25;;;;;;;;;30.75;24.00;;;;;4.58;100.00;102662.66;5039009;28;45566;-87
2022/01/16 09:27:51;;;;;;;;;36.00;28.75;;;;;4.63;100.00;102660.56;5039121;28;45450;-85
2022/01/16 09:30:20;;;;;;;;;29.25;21.75;;;;;4.67;100.00;102657.50;5017865;28;45742;-82
2022/01/16 09:32:46;;;;;;;;;32.25;26.75;;;;;4.70;100.00;102652.69;5038855;28;45424;-83
2022/01/16 09:35:12;;;;;;;;;28.25;24.00;;;;;4.72;100.00;102664.03;5038736;28;45449;-80
2022/01/16 09:37:38;;;;;;;;;24.25;22.00;;;;;4.73;100.00;102670.97;5039013;28;45418;-78
2022/01/16 09:40:07;;;;;;;;;32.00;24.25;;;;;4.72;100.00;102666.59;5035932;28;45458;-76
2022/01/16 09:42:34;;;;;;;;;27.00;22.25;;;;;4.72;100.00;102668.22;5033591;28;45825;-80
2022/01/16 09:44:59;;;;;;;;;31.00;26.00;;;;;4.77;100.00;102669.59;5016509;28;45482;-82
2022/01/16 09:47:25;;;;;;;;;24.50;20.50;;;;;4.85;100.00;102658.41;5037331;28;45673;-80
2022/01/16 09:49:51;;;;;;;;;31.50;22.50;;;;;4.95;100.00;102667.94;5048856;28;45476;-80
2022/01/16 09:52:18;;;;;;;;;28.25;25.00;;;;;5.03;100.00;102673.78;5036816;28;45435;-80
2022/01/16 09:54:43;;;;;;;;;31.00;26.00;;;;;5.11;100.00;102673.78;5036212;28;45326;-80
2022/01/16 09:57:12;;;;;;;;;23.75;20.25;;;;;5.19;100.00;102677.09;5028816;28;46100;-79
2022/01/16 09:59:38;;;;;;;;;27.00;21.75;;;;;5.26;100.00;102687.22;5037158;28;45898;-78
2022/01/16 10:02:05;;;;;;;;;29.50;20.50;;;;;5.32;100.00;102679.19;5038071;28;45238;-77
2022/01/16 10:04:43;;;;;;;;;25.75;21.75;;;;;5.35;100.00;102681.13;5043475;28;45374;-78
2022/01/16 10:07:11;;;;;;;;;27.00;21.50;;;;;5.35;100.00;102668.28;5035005;28;46259;-80
2022/01/16 10:09:39;;;;;;;;;28.25;23.75;;;;;5.32;100.00;102666.34;5028877;28;45506;-80
2022/01/16 10:12:14;;;;;;;;;26.00;22.25;;;;;5.24;100.00;102677.56;5038005;28;45328;-79
2022/01/16 10:14:50;;;;;;;;;22.00;18.50;;;;;5.18;100.00;102670.16;5038822;28;45396;-80
2022/01/16 10:17:21;;;;;;;;;26.75;21.75;;;;;5.14;100.00;102670.59;5038269;28;45817;-80
2022/01/16 10:20:03;;;;;;;;;25.00;21.75;;;;;5.10;100.00;102677.13;5036479;28;45813;-78
2022/01/16 10:22:44;;;;;;;;;27.75;21.75;;;;;5.07;100.00;102673.34;5028200;28;45447;-78
2022/01/16 10:25:12;;;;;;;;;34.75;27.75;;;;;5.10;100.00;102683.94;5035221;28;45632;-79
2022/01/16 10:27:41;;;;;;;;;30.50;21.00;;;;;5.16;100.00;102676.81;5035106;28;46100;-79
2022/01/16 10:30:12;;;;;;;;;27.00;18.75;;;;;5.19;100.00;102660.78;5036965;28;45588;-80
2022/01/16 10:32:43;;;;;;;;;21.50;20.00;;;;;5.17;100.00;102663.22;5020368;28;45339;-79
2022/01/16 10:35:22;;;;;;;;;27.50;20.00;;;;;5.15;100.00;102667.28;5037630;28;45143;-78
2022/01/16 10:37:54;;;;;;;;;23.50;21.50;;;;;5.17;100.00;102672.59;5037364;28;45332;-80
2022/01/16 10:40:23;;;;;;;;;21.00;16.50;;;;;5.19;100.00;102684.81;5038392;28;46081;-80
2022/01/16 10:42:50;;;;;;;;;21.75;21.00;;;;;5.19;100.00;102687.38;5044772;28;45533;-79
2022/01/16 10:45:17;;;;;;;;;24.50;19.25;;;;;5.16;100.00;102679.38;5041806;28;44804;-78
2022/01/16 10:47:51;;;;;;;;;24.25;20.00;;;;;5.15;100.00;102675.00;5029778;28;45530;-81
2022/01/16 10:50:20;;;;;;;;;23.00;19.25;;;;;5.17;100.00;102668.34;5039432;28;45384;-82
2022/01/16 10:53:11;;;;;;;;;24.00;21.25;;;;;5.21;100.00;102656.69;5035792;28;45475;-80
2022/01/16 10:55:49;;;;;;;;;20.25;19.75;;;;;5.25;100.00;102674.22;5040507;28;45667;-85
2022/01/16 10:58:28;;;;;;;;;25.00;17.50;;;;;5.29;100.00;102671.22;5040983;28;46372;-80
2022/01/16 11:01:05;;;;;;;;;23.00;18.00;;;;;5.31;100.00;102668.78;5042841;28;45371;-79
2022/01/16 11:03:53;;;;;;;;;19.75;16.75;;;;;5.37;100.00;102679.63;5042182;28;45448;-76
2022/01/16 11:06:23;;;;;;;;;20.75;17.50;;;;;5.38;100.00;102666.03;5037902;28;45238;-75
2022/01/16 11:08:51;;;;;;;;;24.50;19.75;;;;;5.45;100.00;102677.81;5037906;28;45517;-77
2022/01/16 11:11:16;;;;;;;;;21.00;20.00;;;;;5.51;100.00;102666.44;5018993;28;45503;-77
2022/01/16 11:13:42;;;;;;;;;20.00;17.50;;;;;5.57;100.00;102676.41;5021250;28;45383;-84
2022/01/16 11:16:08;;;;;;;;;20.00;17.75;;;;;5.62;100.00;102677.72;5003558;28;45921;-79
2022/01/16 11:18:38;;;;;;;;;23.50;18.25;;;;;5.65;100.00;102667.75;5019070;28;45458;-78
2022/01/16 11:24:00;;;;;;;;;20.00;17.00;;;;;5.65;100.00;102675.47;5037408;28;45361;-82
2022/01/16 11:26:27;;;;;;;;;19.75;16.75;;;;;5.72;100.00;102687.22;5037711;28;45237;-78
2022/01/16 11:28:57;;;;;;;;;21.00;19.75;;;;;5.81;100.00;102684.63;5037303;28;46664;-78
2022/01/16 11:31:23;;;;;;;;;21.75;16.25;;;;;5.92;100.00;102680.50;5024604;28;45920;-79
2022/01/16 11:33:49;;;;;;;;;14.50;12.25;;;;;6.00;100.00;102687.28;5024123;28;45291;-82
2022/01/16 11:36:18;;;;;;;;;34.25;23.25;;;;;6.07;100.00;102692.25;5042092;28;45448;-82
2022/01/16 11:38:55;;;;;;;;;39.00;28.25;;;;;6.01;100.00;102697.72;5038987;28;45335;-85
2022/01/16 11:41:33;;;;;;;;;29.25;24.50;;;;;5.94;100.00;102696.97;5038343;28;45926;-90
2022/01/16 11:44:03;;;;;;;;;93.50;68.75;;;;;5.87;100.00;102690.34;5037916;28;45422;-84
2022/01/16 11:46:30;;;;;;;;;49.25;39.25;;;;;5.82;100.00;102692.47;5035436;28;45272;-88
2022/01/16 11:48:59;;;;;;;;;88.50;61.00;;;;;5.88;100.00;102692.16;5038854;28;46566;-87
2022/01/16 11:51:39;;;;;;;;;34.00;27.00;;;;;5.94;100.00;102684.13;5032612;28;45540;-89
2022/01/16 11:54:05;;;;;;;;;28.75;22.75;;;;;5.88;100.00;102669.91;5025429;28;45368;-82
2022/01/16 11:56:40;;;;;;;;;46.00;37.00;;;;;5.84;100.00;102675.53;5019292;28;46194;-84
2022/01/16 11:59:34;;;;;;;;;23.50;22.50;;;;;5.79;100.00;102663.91;5040480;28;45518;-83